sensor_id;sensor_type;location;lat;lon;timestamp;P1;durP1;ratioP1;P2;durP2;ratioP2
45909;SDS011;31622;55.416;37.840;2024-03-22T00:01:48;30.30;;;14.35;;
45909;SDS011;31622;55.416;37.840;2024-03-22T00:04:15;25.88;;;14.15;;
45909;SDS011;31622;55.416;37.840;2024-03-22T00:06:42;23.85;;;12.98;;
45909;SDS011;31622;55.416;37.840;2024-03-22T00:09:08;26.38;;;13.57;;
45909;SDS011;31622;55.416;37.840;2024-03-22T00:11:34;23.88;;;12.85;;
45909;SDS011;31622;55.416;37.840;2024-03-22T00:14:01;24.77;;;12.27;;
45909;SDS011;31622;55.416;37.840;2024-03-22T00:16:27;24.05;;;11.65;;
45909;SDS011;31622;55.416;37.840;2024-03-22T00:18:53;21.05;;;11.02;;
45909;SDS011;31622;55.416;37.840;2024-03-22T00:21:18;50.85;;;13.32;;
45909;SDS011;31622;55.416;37.840;2024-03-22T00:23:47;40.50;;;12.50;;
45909;SDS011;31622;55.416;37.840;2024-03-22T00:26:13;21.55;;;10.40;;
45909;SDS011;31622;55.416;37.840;2024-03-22T00:28:38;21.13;;;10.20;;
45909;SDS011;31622;55.416;37.840;2024-03-22T00:31:05;17.80;;;9.40;;
45909;SDS011;31622;55.416;37.840;2024-03-22T00:33:31;16.70;;;9.07;;
45909;SDS011;31622;55.416;37.840;2024-03-22T00:35:57;17.05;;;9.13;;
45909;SDS011;31622;55.416;37.840;2024-03-22T00:38:23;14.60;;;8.05;;
45909;SDS011;31622;55.416;37.840;2024-03-22T00:40:49;15.18;;;8.63;;
45909;SDS011;31622;55.416;37.840;2024-03-22T00:43:14;13.50;;;7.38;;
45909;SDS011;31622;55.416;37.840;2024-03-22T00:45:40;15.65;;;7.95;;
45909;SDS011;31622;55.416;37.840;2024-03-22T00:48:06;13.55;;;7.25;;
45909;SDS011;31622;55.416;37.840;2024-03-22T00:50:32;13.98;;;7.55;;
45909;SDS011;31622;55.416;37.840;2024-03-22T00:52:58;12.35;;;7.03;;
45909;SDS011;31622;55.416;37.840;2024-03-22T00:55:23;11.30;;;6.63;;
45909;SDS011;31622;55.416;37.840;2024-03-22T00:57:49;16.48;;;7.13;;
45909;SDS011;31622;55.416;37.840;2024-03-22T01:00:16;12.23;;;6.38;;
45909;SDS011;31622;55.416;37.840;2024-03-22T01:02:42;12.13;;;6.65;;
45909;SDS011;31622;55.416;37.840;2024-03-22T01:05:08;10.55;;;6.28;;
45909;SDS011;31622;55.416;37.840;2024-03-22T01:07:33;10.13;;;5.97;;
45909;SDS011;31622;55.416;37.840;2024-03-22T01:10:00;9.98;;;5.80;;
45909;SDS011;31622;55.416;37.840;2024-03-22T01:12:26;10.27;;;6.03;;
45909;SDS011;31622;55.416;37.840;2024-03-22T01:14:51;10.35;;;5.78;;
45909;SDS011;31622;55.416;37.840;2024-03-22T01:17:17;10.15;;;5.10;;
45909;SDS011;31622;55.416;37.840;2024-03-22T01:19:43;11.63;;;5.97;;
45909;SDS011;31622;55.416;37.840;2024-03-22T01:22:08;9.32;;;5.15;;
45909;SDS011;31622;55.416;37.840;2024-03-22T01:24:34;10.45;;;4.95;;
45909;SDS011;31622;55.416;37.840;2024-03-22T01:27:00;9.60;;;5.28;;
45909;SDS011;31622;55.416;37.840;2024-03-22T01:29:25;9.40;;;4.75;;
45909;SDS011;31622;55.416;37.840;2024-03-22T01:31:52;6.85;;;4.63;;
45909;SDS011;31622;55.416;37.840;2024-03-22T01:34:18;8.10;;;5.10;;
45909;SDS011;31622;55.416;37.840;2024-03-22T01:36:44;7.97;;;4.68;;
45909;SDS011;31622;55.416;37.840;2024-03-22T01:39:09;7.97;;;4.78;;
45909;SDS011;31622;55.416;37.840;2024-03-22T01:41:36;10.23;;;4.93;;
45909;SDS011;31622;55.416;37.840;2024-03-22T01:44:02;10.23;;;4.90;;
45909;SDS011;31622;55.416;37.840;2024-03-22T01:46:27;7.13;;;4.70;;
45909;SDS011;31622;55.416;37.840;2024-03-22T01:48:53;9.02;;;4.50;;
45909;SDS011;31622;55.416;37.840;2024-03-22T01:51:18;9.20;;;4.85;;
45909;SDS011;31622;55.416;37.840;2024-03-22T01:53:44;7.13;;;4.60;;
45909;SDS011;31622;55.416;37.840;2024-03-22T01:56:10;6.30;;;3.95;;
45909;SDS011;31622;55.416;37.840;2024-03-22T01:58:36;7.18;;;4.82;;
45909;SDS011;31622;55.416;37.840;2024-03-22T02:01:02;8.20;;;4.53;;
45909;SDS011;31622;55.416;37.840;2024-03-22T02:03:27;10.95;;;4.75;;
45909;SDS011;31622;55.416;37.840;2024-03-22T02:05:53;7.00;;;4.50;;
45909;SDS011;31622;55.416;37.840;2024-03-22T02:08:19;6.93;;;4.30;;
45909;SDS011;31622;55.416;37.840;2024-03-22T02:10:45;8.32;;;4.53;;
45909;SDS011;31622;55.416;37.840;2024-03-22T02:13:10;7.43;;;4.30;;
45909;SDS011;31622;55.416;37.840;2024-03-22T02:15:36;6.75;;;4.13;;
45909;SDS011;31622;55.416;37.840;2024-03-22T02:18:02;8.20;;;4.38;;
45909;SDS011;31622;55.416;37.840;2024-03-22T02:20:27;6.88;;;4.15;;
45909;SDS011;31622;55.416;37.840;2024-03-22T02:22:53;6.05;;;4.20;;
45909;SDS011;31622;55.416;37.840;2024-03-22T02:25:19;7.63;;;4.18;;
45909;SDS011;31622;55.416;37.840;2024-03-22T02:27:44;7.75;;;4.40;;
45909;SDS011;31622;55.416;37.840;2024-03-22T02:30:10;8.35;;;4.20;;
45909;SDS011;31622;55.416;37.840;2024-03-22T02:32:36;6.60;;;4.07;;
45909;SDS011;31622;55.416;37.840;2024-03-22T02:35:03;7.03;;;4.30;;
45909;SDS011;31622;55.416;37.840;2024-03-22T02:37:29;7.10;;;4.53;;
45909;SDS011;31622;55.416;37.840;2024-03-22T02:39:55;5.75;;;3.95;;
45909;SDS011;31622;55.416;37.840;2024-03-22T02:42:20;6.78;;;4.10;;
45909;SDS011;31622;55.416;37.840;2024-03-22T02:44:46;6.18;;;3.90;;
45909;SDS011;31622;55.416;37.840;2024-03-22T02:47:12;7.40;;;4.32;;
45909;SDS011;31622;55.416;37.840;2024-03-22T02:49:39;5.65;;;4.00;;
45909;SDS011;31622;55.416;37.840;2024-03-22T02:52:05;8.10;;;4.03;;
45909;SDS011;31622;55.416;37.840;2024-03-22T02:54:31;7.63;;;4.47;;
45909;SDS011;31622;55.416;37.840;2024-03-22T02:56:56;8.20;;;4.35;;
45909;SDS011;31622;55.416;37.840;2024-03-22T02:59:25;6.57;;;4.07;;
45909;SDS011;31622;55.416;37.840;2024-03-22T03:01:51;9.40;;;4.63;;
45909;SDS011;31622;55.416;37.840;2024-03-22T03:04:17;7.10;;;4.22;;
45909;SDS011;31622;55.416;37.840;2024-03-22T03:06:43;6.07;;;4.13;;
45909;SDS011;31622;55.416;37.840;2024-03-22T03:09:11;6.75;;;4.22;;
45909;SDS011;31622;55.416;37.840;2024-03-22T03:11:40;7.43;;;4.35;;
45909;SDS011;31622;55.416;37.840;2024-03-22T03:14:06;6.63;;;4.25;;
45909;SDS011;31622;55.416;37.840;2024-03-22T03:16:32;5.82;;;4.25;;
45909;SDS011;31622;55.416;37.840;2024-03-22T03:18:57;11.43;;;4.47;;
45909;SDS011;31622;55.416;37.840;2024-03-22T03:21:23;7.93;;;4.32;;
45909;SDS011;31622;55.416;37.840;2024-03-22T03:23:49;8.95;;;4.38;;
45909;SDS011;31622;55.416;37.840;2024-03-22T03:26:15;5.75;;;3.95;;
45909;SDS011;31622;55.416;37.840;2024-03-22T03:28:40;9.43;;;5.25;;
45909;SDS011;31622;55.416;37.840;2024-03-22T03:31:06;6.70;;;4.63;;
45909;SDS011;31622;55.416;37.840;2024-03-22T03:33:31;7.25;;;4.53;;
45909;SDS011;31622;55.416;37.840;2024-03-22T03:35:57;8.95;;;4.40;;
45909;SDS011;31622;55.416;37.840;2024-03-22T03:38:23;7.32;;;4.88;;
45909;SDS011;31622;55.416;37.840;2024-03-22T03:40:48;7.90;;;4.13;;
45909;SDS011;31622;55.416;37.840;2024-03-22T03:43:14;10.88;;;4.68;;
45909;SDS011;31622;55.416;37.840;2024-03-22T03:45:40;9.18;;;4.45;;
45909;SDS011;31622;55.416;37.840;2024-03-22T03:48:05;10.50;;;6.18;;
45909;SDS011;31622;55.416;37.840;2024-03-22T03:50:31;7.32;;;4.78;;
45909;SDS011;31622;55.416;37.840;2024-03-22T03:52:57;10.40;;;5.05;;
45909;SDS011;31622;55.416;37.840;2024-03-22T03:55:23;7.20;;;4.53;;
45909;SDS011;31622;55.416;37.840;2024-03-22T03:57:52;7.28;;;4.82;;
45909;SDS011;31622;55.416;37.840;2024-03-22T04:00:20;6.88;;;4.93;;
45909;SDS011;31622;55.416;37.840;2024-03-22T04:02:48;8.02;;;5.13;;
45909;SDS011;31622;55.416;37.840;2024-03-22T04:05:14;8.70;;;5.30;;
45909;SDS011;31622;55.416;37.840;2024-03-22T04:07:40;6.40;;;4.63;;
45909;SDS011;31622;55.416;37.840;2024-03-22T04:10:07;8.18;;;5.03;;
45909;SDS011;31622;55.416;37.840;2024-03-22T04:12:33;7.35;;;4.93;;
45909;SDS011;31622;55.416;37.840;2024-03-22T04:14:59;8.73;;;5.07;;
45909;SDS011;31622;55.416;37.840;2024-03-22T04:17:25;8.90;;;5.03;;
45909;SDS011;31622;55.416;37.840;2024-03-22T04:19:51;8.88;;;5.13;;
45909;SDS011;31622;55.416;37.840;2024-03-22T04:22:17;8.55;;;4.80;;
45909;SDS011;31622;55.416;37.840;2024-03-22T04:24:43;7.03;;;5.13;;
45909;SDS011;31622;55.416;37.840;2024-03-22T04:27:09;6.55;;;4.60;;
45909;SDS011;31622;55.416;37.840;2024-03-22T04:29:35;7.63;;;4.53;;
45909;SDS011;31622;55.416;37.840;2024-03-22T04:32:00;8.23;;;5.32;;
45909;SDS011;31622;55.416;37.840;2024-03-22T04:34:26;9.02;;;4.95;;
45909;SDS011;31622;55.416;37.840;2024-03-22T04:36:52;8.13;;;5.30;;
45909;SDS011;31622;55.416;37.840;2024-03-22T04:39:21;7.60;;;4.80;;
45909;SDS011;31622;55.416;37.840;2024-03-22T04:41:47;7.47;;;4.85;;
45909;SDS011;31622;55.416;37.840;2024-03-22T04:44:13;8.25;;;4.93;;
45909;SDS011;31622;55.416;37.840;2024-03-22T04:46:38;6.93;;;4.78;;
45909;SDS011;31622;55.416;37.840;2024-03-22T04:49:04;6.90;;;4.55;;
45909;SDS011;31622;55.416;37.840;2024-03-22T04:51:30;6.80;;;4.85;;
45909;SDS011;31622;55.416;37.840;2024-03-22T04:53:55;7.35;;;4.28;;
45909;SDS011;31622;55.416;37.840;2024-03-22T04:56:21;8.63;;;4.50;;
45909;SDS011;31622;55.416;37.840;2024-03-22T04:58:47;11.00;;;4.93;;
45909;SDS011;31622;55.416;37.840;2024-03-22T05:01:12;8.52;;;4.78;;
45909;SDS011;31622;55.416;37.840;2024-03-22T05:03:38;6.80;;;4.82;;
45909;SDS011;31622;55.416;37.840;2024-03-22T05:06:04;8.25;;;5.05;;
45909;SDS011;31622;55.416;37.840;2024-03-22T05:08:31;8.80;;;4.50;;
45909;SDS011;31622;55.416;37.840;2024-03-22T05:10:57;9.02;;;4.63;;
45909;SDS011;31622;55.416;37.840;2024-03-22T05:13:23;8.57;;;5.18;;
45909;SDS011;31622;55.416;37.840;2024-03-22T05:15:48;8.88;;;5.60;;
45909;SDS011;31622;55.416;37.840;2024-03-22T05:18:14;10.60;;;4.63;;
45909;SDS011;31622;55.416;37.840;2024-03-22T05:20:40;7.85;;;4.57;;
45909;SDS011;31622;55.416;37.840;2024-03-22T05:23:05;9.52;;;5.40;;
45909;SDS011;31622;55.416;37.840;2024-03-22T05:25:31;7.82;;;4.97;;
45909;SDS011;31622;55.416;37.840;2024-03-22T05:27:57;6.93;;;5.00;;
45909;SDS011;31622;55.416;37.840;2024-03-22T05:30:22;7.85;;;4.50;;
45909;SDS011;31622;55.416;37.840;2024-03-22T05:32:48;9.25;;;4.78;;
45909;SDS011;31622;55.416;37.840;2024-03-22T05:35:15;7.35;;;4.70;;
45909;SDS011;31622;55.416;37.840;2024-03-22T05:37:41;9.48;;;5.32;;
45909;SDS011;31622;55.416;37.840;2024-03-22T05:40:07;11.05;;;4.70;;
45909;SDS011;31622;55.416;37.840;2024-03-22T05:42:34;7.78;;;4.03;;
45909;SDS011;31622;55.416;37.840;2024-03-22T05:44:59;5.90;;;4.53;;
45909;SDS011;31622;55.416;37.840;2024-03-22T05:47:25;7.47;;;4.50;;
45909;SDS011;31622;55.416;37.840;2024-03-22T05:49:51;9.27;;;4.75;;
45909;SDS011;31622;55.416;37.840;2024-03-22T05:52:17;11.75;;;4.97;;
45909;SDS011;31622;55.416;37.840;2024-03-22T05:54:43;9.13;;;5.00;;
45909;SDS011;31622;55.416;37.840;2024-03-22T05:57:09;8.98;;;5.22;;
45909;SDS011;31622;55.416;37.840;2024-03-22T05:59:35;13.13;;;5.90;;
45909;SDS011;31622;55.416;37.840;2024-03-22T06:02:01;13.55;;;5.18;;
45909;SDS011;31622;55.416;37.840;2024-03-22T06:04:27;11.95;;;5.38;;
45909;SDS011;31622;55.416;37.840;2024-03-22T06:06:53;10.00;;;5.32;;
45909;SDS011;31622;55.416;37.840;2024-03-22T06:09:18;12.65;;;5.90;;
45909;SDS011;31622;55.416;37.840;2024-03-22T06:11:59;15.95;;;6.68;;
45909;SDS011;31622;55.416;37.840;2024-03-22T06:14:27;14.98;;;6.35;;
45909;SDS011;31622;55.416;37.840;2024-03-22T06:16:53;21.13;;;8.00;;
45909;SDS011;31622;55.416;37.840;2024-03-22T06:19:19;17.00;;;7.95;;
45909;SDS011;31622;55.416;37.840;2024-03-22T06:21:44;16.25;;;7.95;;
45909;SDS011;31622;55.416;37.840;2024-03-22T06:24:10;22.48;;;8.82;;
45909;SDS011;31622;55.416;37.840;2024-03-22T06:26:36;18.38;;;8.60;;
45909;SDS011;31622;55.416;37.840;2024-03-22T06:29:01;21.00;;;9.50;;
45909;SDS011;31622;55.416;37.840;2024-03-22T06:31:27;31.52;;;9.50;;
45909;SDS011;31622;55.416;37.840;2024-03-22T06:33:54;22.17;;;9.55;;
45909;SDS011;31622;55.416;37.840;2024-03-22T06:36:21;21.17;;;9.35;;
45909;SDS011;31622;55.416;37.840;2024-03-22T06:38:47;21.63;;;8.35;;
45909;SDS011;31622;55.416;37.840;2024-03-22T06:41:13;22.88;;;8.30;;
45909;SDS011;31622;55.416;37.840;2024-03-22T06:43:39;18.00;;;8.15;;
45909;SDS011;31622;55.416;37.840;2024-03-22T06:46:06;20.45;;;7.72;;
45909;SDS011;31622;55.416;37.840;2024-03-22T06:48:32;14.90;;;8.02;;
45909;SDS011;31622;55.416;37.840;2024-03-22T06:50:58;15.32;;;7.95;;
45909;SDS011;31622;55.416;37.840;2024-03-22T06:53:24;14.32;;;7.57;;
45909;SDS011;31622;55.416;37.840;2024-03-22T06:55:50;15.30;;;7.28;;
45909;SDS011;31622;55.416;37.840;2024-03-22T06:58:15;16.30;;;7.75;;
45909;SDS011;31622;55.416;37.840;2024-03-22T07:00:41;11.18;;;6.60;;
45909;SDS011;31622;55.416;37.840;2024-03-22T07:03:07;14.05;;;7.38;;
45909;SDS011;31622;55.416;37.840;2024-03-22T07:05:32;12.65;;;6.68;;
45909;SDS011;31622;55.416;37.840;2024-03-22T07:07:58;11.93;;;6.40;;
45909;SDS011;31622;55.416;37.840;2024-03-22T07:10:24;15.75;;;7.45;;
45909;SDS011;31622;55.416;37.840;2024-03-22T07:12:56;12.05;;;6.72;;
45909;SDS011;31622;55.416;37.840;2024-03-22T07:15:25;13.82;;;7.43;;
45909;SDS011;31622;55.416;37.840;2024-03-22T07:17:51;17.90;;;8.60;;
45909;SDS011;31622;55.416;37.840;2024-03-22T07:20:17;22.33;;;10.10;;
45909;SDS011;31622;55.416;37.840;2024-03-22T07:22:43;31.55;;;11.70;;
45909;SDS011;31622;55.416;37.840;2024-03-22T07:25:09;34.88;;;12.77;;
45909;SDS011;31622;55.416;37.840;2024-03-22T07:27:35;36.53;;;13.07;;
45909;SDS011;31622;55.416;37.840;2024-03-22T07:30:02;33.88;;;12.32;;
45909;SDS011;31622;55.416;37.840;2024-03-22T07:32:28;30.52;;;11.88;;
45909;SDS011;31622;55.416;37.840;2024-03-22T07:34:55;27.65;;;11.25;;
45909;SDS011;31622;55.416;37.840;2024-03-22T07:37:20;28.50;;;11.50;;
45909;SDS011;31622;55.416;37.840;2024-03-22T07:39:46;27.35;;;11.27;;
45909;SDS011;31622;55.416;37.840;2024-03-22T07:42:12;23.75;;;11.10;;
45909;SDS011;31622;55.416;37.840;2024-03-22T07:44:38;28.63;;;10.77;;
45909;SDS011;31622;55.416;37.840;2024-03-22T07:47:04;27.17;;;9.93;;
45909;SDS011;31622;55.416;37.840;2024-03-22T07:49:30;22.20;;;9.85;;
45909;SDS011;31622;55.416;37.840;2024-03-22T07:51:56;20.67;;;8.93;;
45909;SDS011;31622;55.416;37.840;2024-03-22T07:54:22;18.30;;;8.13;;
45909;SDS011;31622;55.416;37.840;2024-03-22T07:56:48;21.27;;;8.43;;
45909;SDS011;31622;55.416;37.840;2024-03-22T07:59:14;25.90;;;8.63;;
45909;SDS011;31622;55.416;37.840;2024-03-22T08:01:40;19.88;;;8.48;;
45909;SDS011;31622;55.416;37.840;2024-03-22T08:04:06;19.10;;;8.05;;
45909;SDS011;31622;55.416;37.840;2024-03-22T08:06:31;17.20;;;7.82;;
45909;SDS011;31622;55.416;37.840;2024-03-22T08:08:57;13.60;;;7.22;;
45909;SDS011;31622;55.416;37.840;2024-03-22T08:11:23;12.57;;;6.75;;
45909;SDS011;31622;55.416;37.840;2024-03-22T08:13:48;16.48;;;6.63;;
45909;SDS011;31622;55.416;37.840;2024-03-22T08:16:14;12.90;;;6.53;;
45909;SDS011;31622;55.416;37.840;2024-03-22T08:18:40;15.32;;;7.45;;
45909;SDS011;31622;55.416;37.840;2024-03-22T08:21:05;13.48;;;5.93;;
45909;SDS011;31622;55.416;37.840;2024-03-22T08:23:31;13.10;;;6.57;;
45909;SDS011;31622;55.416;37.840;2024-03-22T08:25:57;15.32;;;6.03;;
45909;SDS011;31622;55.416;37.840;2024-03-22T08:28:23;9.48;;;5.63;;
45909;SDS011;31622;55.416;37.840;2024-03-22T08:30:49;10.57;;;5.72;;
45909;SDS011;31622;55.416;37.840;2024-03-22T08:33:14;13.25;;;6.20;;
45909;SDS011;31622;55.416;37.840;2024-03-22T08:35:40;11.07;;;5.97;;
45909;SDS011;31622;55.416;37.840;2024-03-22T08:38:06;9.63;;;5.38;;
45909;SDS011;31622;55.416;37.840;2024-03-22T08:40:40;10.35;;;5.07;;
45909;SDS011;31622;55.416;37.840;2024-03-22T08:43:05;10.25;;;4.88;;
45909;SDS011;31622;55.416;37.840;2024-03-22T08:45:34;10.45;;;4.85;;
45909;SDS011;31622;55.416;37.840;2024-03-22T08:48:00;10.55;;;5.25;;
45909;SDS011;31622;55.416;37.840;2024-03-22T08:50:26;9.85;;;4.95;;
45909;SDS011;31622;55.416;37.840;2024-03-22T08:52:52;8.48;;;4.40;;
45909;SDS011;31622;55.416;37.840;2024-03-22T08:55:18;10.27;;;5.15;;
45909;SDS011;31622;55.416;37.840;2024-03-22T08:57:43;7.03;;;4.43;;
45909;SDS011;31622;55.416;37.840;2024-03-22T09:00:09;7.82;;;4.15;;
45909;SDS011;31622;55.416;37.840;2024-03-22T09:02:36;6.72;;;3.60;;
45909;SDS011;31622;55.416;37.840;2024-03-22T09:05:03;8.52;;;4.15;;
45909;SDS011;31622;55.416;37.840;2024-03-22T09:07:34;9.35;;;3.95;;
45909;SDS011;31622;55.416;37.840;2024-03-22T09:09:59;7.78;;;3.83;;
45909;SDS011;31622;55.416;37.840;2024-03-22T09:12:26;7.10;;;3.75;;
45909;SDS011;31622;55.416;37.840;2024-03-22T09:14:53;9.27;;;3.80;;
45909;SDS011;31622;55.416;37.840;2024-03-22T09:17:20;9.38;;;4.22;;
45909;SDS011;31622;55.416;37.840;2024-03-22T09:19:45;5.82;;;3.92;;
45909;SDS011;31622;55.416;37.840;2024-03-22T09:22:11;6.97;;;3.83;;
45909;SDS011;31622;55.416;37.840;2024-03-22T09:24:37;5.80;;;3.53;;
45909;SDS011;31622;55.416;37.840;2024-03-22T09:27:03;6.63;;;3.63;;
45909;SDS011;31622;55.416;37.840;2024-03-22T09:29:34;6.35;;;3.83;;
45909;SDS011;31622;55.416;37.840;2024-03-22T09:32:00;6.00;;;3.70;;
45909;SDS011;31622;55.416;37.840;2024-03-22T09:34:27;6.07;;;3.35;;
45909;SDS011;31622;55.416;37.840;2024-03-22T09:36:53;7.93;;;4.22;;
45909;SDS011;31622;55.416;37.840;2024-03-22T09:39:19;7.35;;;3.95;;
45909;SDS011;31622;55.416;37.840;2024-03-22T09:41:45;7.78;;;4.25;;
45909;SDS011;31622;55.416;37.840;2024-03-22T09:44:12;7.25;;;4.28;;
45909;SDS011;31622;55.416;37.840;2024-03-22T09:46:43;5.65;;;3.92;;
45909;SDS011;31622;55.416;37.840;2024-03-22T09:49:13;6.70;;;3.67;;
45909;SDS011;31622;55.416;37.840;2024-03-22T09:51:39;7.85;;;3.53;;
45909;SDS011;31622;55.416;37.840;2024-03-22T09:54:05;5.43;;;3.47;;
45909;SDS011;31622;55.416;37.840;2024-03-22T09:56:31;6.88;;;3.83;;
45909;SDS011;31622;55.416;37.840;2024-03-22T09:58:59;7.43;;;4.10;;
45909;SDS011;31622;55.416;37.840;2024-03-22T10:01:25;5.82;;;3.80;;
45909;SDS011;31622;55.416;37.840;2024-03-22T10:03:51;4.53;;;3.30;;
45909;SDS011;31622;55.416;37.840;2024-03-22T10:06:18;4.78;;;3.40;;
45909;SDS011;31622;55.416;37.840;2024-03-22T10:08:44;6.55;;;3.80;;
45909;SDS011;31622;55.416;37.840;2024-03-22T10:11:10;7.18;;;3.90;;
45909;SDS011;31622;55.416;37.840;2024-03-22T10:13:36;10.90;;;3.70;;
45909;SDS011;31622;55.416;37.840;2024-03-22T10:16:02;8.05;;;3.78;;
45909;SDS011;31622;55.416;37.840;2024-03-22T10:18:28;4.95;;;3.13;;
45909;SDS011;31622;55.416;37.840;2024-03-22T10:23:27;41.28;;;4.63;;
45909;SDS011;31622;55.416;37.840;2024-03-22T10:25:53;33.35;;;4.13;;
45909;SDS011;31622;55.416;37.840;2024-03-22T10:28:19;25.75;;;3.83;;
45909;SDS011;31622;55.416;37.840;2024-03-22T10:30:44;20.40;;;4.20;;
45909;SDS011;31622;55.416;37.840;2024-03-22T10:33:13;9.55;;;3.85;;
45909;SDS011;31622;55.416;37.840;2024-03-22T10:35:40;12.60;;;3.95;;
45909;SDS011;31622;55.416;37.840;2024-03-22T10:38:06;10.88;;;3.30;;
45909;SDS011;31622;55.416;37.840;2024-03-22T10:40:33;16.95;;;3.40;;
45909;SDS011;31622;55.416;37.840;2024-03-22T10:43:00;6.22;;;3.55;;
45909;SDS011;31622;55.416;37.840;2024-03-22T10:45:27;7.88;;;3.25;;
45909;SDS011;31622;55.416;37.840;2024-03-22T10:47:55;6.97;;;3.05;;
45909;SDS011;31622;55.416;37.840;2024-03-22T10:50:21;9.85;;;3.30;;
45909;SDS011;31622;55.416;37.840;2024-03-22T10:52:59;9.07;;;2.97;;
45909;SDS011;31622;55.416;37.840;2024-03-22T10:55:35;5.78;;;2.80;;
45909;SDS011;31622;55.416;37.840;2024-03-22T10:58:02;5.00;;;2.83;;
45909;SDS011;31622;55.416;37.840;2024-03-22T11:00:32;5.93;;;2.67;;
45909;SDS011;31622;55.416;37.840;2024-03-22T11:03:03;3.63;;;2.75;;
45909;SDS011;31622;55.416;37.840;2024-03-22T11:05:29;5.30;;;2.90;;
45909;SDS011;31622;55.416;37.840;2024-03-22T11:07:58;4.72;;;2.70;;
45909;SDS011;31622;55.416;37.840;2024-03-22T11:10:28;6.43;;;2.60;;
45909;SDS011;31622;55.416;37.840;2024-03-22T11:13:01;3.45;;;2.60;;
45909;SDS011;31622;55.416;37.840;2024-03-22T11:15:28;4.15;;;2.63;;
45909;SDS011;31622;55.416;37.840;2024-03-22T11:17:54;4.38;;;2.40;;
45909;SDS011;31622;55.416;37.840;2024-03-22T11:20:21;7.97;;;2.53;;
45909;SDS011;31622;55.416;37.840;2024-03-22T11:22:46;5.50;;;2.50;;
45909;SDS011;31622;55.416;37.840;2024-03-22T11:25:12;6.55;;;2.60;;
45909;SDS011;31622;55.416;37.840;2024-03-22T11:27:38;5.00;;;2.90;;
45909;SDS011;31622;55.416;37.840;2024-03-22T11:30:04;3.78;;;2.33;;
45909;SDS011;31622;55.416;37.840;2024-03-22T11:32:30;3.88;;;2.45;;
45909;SDS011;31622;55.416;37.840;2024-03-22T11:34:56;9.07;;;3.50;;
45909;SDS011;31622;55.416;37.840;2024-03-22T11:37:22;4.65;;;2.60;;
45909;SDS011;31622;55.416;37.840;2024-03-22T11:39:48;4.88;;;2.55;;
45909;SDS011;31622;55.416;37.840;2024-03-22T11:42:14;6.05;;;2.35;;
45909;SDS011;31622;55.416;37.840;2024-03-22T11:44:41;4.10;;;2.30;;
45909;SDS011;31622;55.416;37.840;2024-03-22T11:47:06;3.70;;;2.10;;
45909;SDS011;31622;55.416;37.840;2024-03-22T11:49:32;3.88;;;2.30;;
45909;SDS011;31622;55.416;37.840;2024-03-22T11:52:00;3.55;;;2.35;;
45909;SDS011;31622;55.416;37.840;2024-03-22T11:54:25;4.53;;;2.38;;
45909;SDS011;31622;55.416;37.840;2024-03-22T11:56:51;3.30;;;2.05;;
45909;SDS011;31622;55.416;37.840;2024-03-22T11:59:19;3.95;;;2.03;;
45909;SDS011;31622;55.416;37.840;2024-03-22T12:01:46;3.97;;;2.20;;
45909;SDS011;31622;55.416;37.840;2024-03-22T12:04:12;3.28;;;2.10;;
45909;SDS011;31622;55.416;37.840;2024-03-22T12:06:46;2.53;;;2.10;;
45909;SDS011;31622;55.416;37.840;2024-03-22T12:09:12;3.60;;;2.60;;
45909;SDS011;31622;55.416;37.840;2024-03-22T12:11:39;4.40;;;2.17;;
45909;SDS011;31622;55.416;37.840;2024-03-22T12:14:05;3.55;;;2.10;;
45909;SDS011;31622;55.416;37.840;2024-03-22T12:16:30;2.92;;;2.20;;
45909;SDS011;31622;55.416;37.840;2024-03-22T12:18:57;3.42;;;2.20;;
45909;SDS011;31622;55.416;37.840;2024-03-22T12:21:23;5.47;;;2.80;;
45909;SDS011;31622;55.416;37.840;2024-03-22T12:23:49;2.58;;;1.73;;
45909;SDS011;31622;55.416;37.840;2024-03-22T12:26:15;4.72;;;2.10;;
45909;SDS011;31622;55.416;37.840;2024-03-22T12:28:43;3.70;;;2.08;;
45909;SDS011;31622;55.416;37.840;2024-03-22T12:31:08;2.70;;;1.90;;
45909;SDS011;31622;55.416;37.840;2024-03-22T12:33:36;2.92;;;1.83;;
45909;SDS011;31622;55.416;37.840;2024-03-22T12:36:02;3.85;;;1.92;;
45909;SDS011;31622;55.416;37.840;2024-03-22T12:38:29;3.08;;;1.67;;
45909;SDS011;31622;55.416;37.840;2024-03-22T12:40:54;2.65;;;1.90;;
45909;SDS011;31622;55.416;37.840;2024-03-22T12:43:20;2.65;;;1.83;;
45909;SDS011;31622;55.416;37.840;2024-03-22T12:45:46;2.90;;;1.80;;
45909;SDS011;31622;55.416;37.840;2024-03-22T12:48:12;3.90;;;2.25;;
45909;SDS011;31622;55.416;37.840;2024-03-22T12:50:38;3.15;;;2.10;;
45909;SDS011;31622;55.416;37.840;2024-03-22T12:53:04;4.55;;;1.83;;
45909;SDS011;31622;55.416;37.840;2024-03-22T12:55:30;9.63;;;2.38;;
45909;SDS011;31622;55.416;37.840;2024-03-22T12:57:57;5.55;;;2.10;;
45909;SDS011;31622;55.416;37.840;2024-03-22T13:00:23;6.13;;;2.03;;
45909;SDS011;31622;55.416;37.840;2024-03-22T13:02:49;8.93;;;2.40;;
45909;SDS011;31622;55.416;37.840;2024-03-22T13:05:14;5.85;;;2.38;;
45909;SDS011;31622;55.416;37.840;2024-03-22T13:07:40;12.00;;;2.60;;
45909;SDS011;31622;55.416;37.840;2024-03-22T13:10:07;11.10;;;2.60;;
45909;SDS011;31622;55.416;37.840;2024-03-22T13:12:33;43.20;;;4.45;;
45909;SDS011;31622;55.416;37.840;2024-03-22T13:15:00;7.80;;;2.42;;
45909;SDS011;31622;55.416;37.840;2024-03-22T13:17:26;10.77;;;2.25;;
45909;SDS011;31622;55.416;37.840;2024-03-22T13:19:52;9.73;;;2.35;;
45909;SDS011;31622;55.416;37.840;2024-03-22T13:22:17;11.63;;;2.25;;
45909;SDS011;31622;55.416;37.840;2024-03-22T13:24:46;8.95;;;2.50;;
45909;SDS011;31622;55.416;37.840;2024-03-22T13:27:13;4.95;;;2.22;;
45909;SDS011;31622;55.416;37.840;2024-03-22T13:29:41;9.88;;;2.15;;
45909;SDS011;31622;55.416;37.840;2024-03-22T13:32:07;8.35;;;2.30;;
45909;SDS011;31622;55.416;37.840;2024-03-22T13:34:43;7.22;;;2.80;;
45909;SDS011;31622;55.416;37.840;2024-03-22T13:37:08;6.50;;;2.65;;
45909;SDS011;31622;55.416;37.840;2024-03-22T13:39:35;9.73;;;3.05;;
45909;SDS011;31622;55.416;37.840;2024-03-22T13:42:01;5.38;;;3.00;;
45909;SDS011;31622;55.416;37.840;2024-03-22T13:44:27;5.70;;;2.63;;
45909;SDS011;31622;55.416;37.840;2024-03-22T13:46:54;4.15;;;2.33;;
45909;SDS011;31622;55.416;37.840;2024-03-22T13:49:20;12.93;;;2.72;;
45909;SDS011;31622;55.416;37.840;2024-03-22T13:51:48;16.02;;;3.00;;
45909;SDS011;31622;55.416;37.840;2024-03-22T13:54:14;8.13;;;2.50;;
45909;SDS011;31622;55.416;37.840;2024-03-22T13:56:40;6.03;;;2.70;;
45909;SDS011;31622;55.416;37.840;2024-03-22T13:59:06;9.38;;;2.90;;
45909;SDS011;31622;55.416;37.840;2024-03-22T14:01:37;5.55;;;2.70;;
45909;SDS011;31622;55.416;37.840;2024-03-22T14:04:03;4.35;;;2.30;;
45909;SDS011;31622;55.416;37.840;2024-03-22T14:06:33;3.47;;;2.38;;
45909;SDS011;31622;55.416;37.840;2024-03-22T14:08:59;4.32;;;2.58;;
45909;SDS011;31622;55.416;37.840;2024-03-22T14:11:33;6.28;;;3.47;;
45909;SDS011;31622;55.416;37.840;2024-03-22T14:13:58;3.97;;;2.58;;
45909;SDS011;31622;55.416;37.840;2024-03-22T14:16:24;4.63;;;2.40;;
45909;SDS011;31622;55.416;37.840;2024-03-22T14:18:50;3.90;;;2.22;;
45909;SDS011;31622;55.416;37.840;2024-03-22T14:21:17;3.72;;;2.10;;
45909;SDS011;31622;55.416;37.840;2024-03-22T14:23:46;7.65;;;2.55;;
45909;SDS011;31622;55.416;37.840;2024-03-22T14:26:12;5.05;;;2.67;;